»·PEaware :: WAT2489 KSNA-KSDL

WAT2489 :: KSNA-KSDL

FLIGHT INFORMATION

Flight Status: Arrived
Operator:
Walker Air Transport
More flights by this operator :: More flights under this callsign
Pilot: Graham D. (41507)
Aircraft: CANADAIR CL-600 CHALLENGER
(CL60)
More flights by this aircraft type
Origin: KSNA John Wayne-Orange Co
United States
Destination: KSDL Scottsdale
United States
More flights between these airports :: More routes between these airports
Route: PIGGN3 CNERY BLH ARLIN4
File this flight plan on PilotEdge
Remarks:
Altitude:
(Current/Filed)
39,000ft
Speed:
(Current/Filed)
453kts
Departed: 21-Nov-23 03:06 PM
Arrived: 21-Nov-23 04:01 PM
Distance/Time
Traveled:
297nm/0:55
Distance/Time
To Go:
Arrived

Flight Plot

Page will automatically refresh every two minutes.

Flight plan parsing failed; only flown route is shown


Map Options




Map Legend


Flown Route
Filed Route
Departure Airport
Arrival Airport
Navaid (VOR, NDB)
Fix

Horizontal Profiles

Position Reports

Time Latitude Longitude Heading Altitude Ground
Speed
21-Nov-23 14:35 33.671818 -117.866930 206 64ft 0kts
21-Nov-23 14:36 33.671818 -117.866930 206 64ft 0kts
21-Nov-23 14:37 33.671818 -117.866930 206 64ft 0kts
21-Nov-23 14:38 33.671818 -117.866930 206 64ft 0kts
21-Nov-23 14:46 33.671818 -117.866930 206 64ft 0kts
21-Nov-23 14:47 33.671818 -117.866930 206 64ft 0kts
21-Nov-23 14:48 33.671818 -117.866930 206 64ft 0kts
21-Nov-23 14:49 33.671818 -117.866930 206 64ft 0kts
21-Nov-23 14:50 33.671818 -117.866930 206 64ft 0kts
21-Nov-23 14:51 33.671818 -117.866930 206 64ft 0kts
21-Nov-23 14:52 33.671818 -117.866930 206 64ft 0kts
21-Nov-23 14:53 33.671818 -117.866930 206 64ft 0kts
21-Nov-23 14:54 33.671818 -117.866930 206 64ft 0kts
21-Nov-23 14:55 33.671818 -117.866930 206 64ft 0kts
21-Nov-23 14:56 33.671818 -117.866930 206 64ft 0kts
21-Nov-23 14:57 33.671818 -117.866930 206 64ft 0kts
21-Nov-23 14:58 33.671818 -117.866930 206 64ft 0kts
21-Nov-23 14:59 33.671818 -117.866930 206 64ft 0kts
21-Nov-23 15:00 33.671728 -117.867125 268 64ft 4kts
21-Nov-23 15:01 33.673607 -117.866782 26 64ft 14kts
21-Nov-23 15:02 33.677992 -117.864004 27 64ft 23kts
21-Nov-23 15:03 33.680624 -117.863004 300 64ft 0kts
21-Nov-23 15:04 33.680670 -117.863098 300 64ft 3kts
21-Nov-23 15:05 33.681173 -117.865351 208 64ft 0kts
21-Nov-23 15:05 33.675100 -117.869206 207 64ft 125kts
21-Nov-23 15:07 33.620709 -117.892354 186 1804ft 202kts
21-Nov-23 15:08 33.561889 -117.893664 152 3964ft 226kts
21-Nov-23 15:08 33.511170 -117.859692 134 6958ft 271kts
21-Nov-23 15:09 33.476771 -117.776400 100 11012ft 318kts
21-Nov-23 15:11 33.505410 -117.646202 58 13990ft 378kts
21-Nov-23 15:12 33.558206 -117.535940 57 17756ft 390kts
21-Nov-23 15:13 33.560110 -117.406937 108 20817ft 421kts
21-Nov-23 15:13 33.524816 -117.295964 108 23136ft 435kts
21-Nov-23 15:14 33.500861 -117.154571 87 25243ft 439kts
21-Nov-23 15:15 33.499634 -117.006030 88 27022ft 450kts
21-Nov-23 15:17 33.497071 -116.830038 87 29327ft 450kts
21-Nov-23 15:17 33.495745 -116.705885 87 31179ft 443kts
21-Nov-23 15:18 33.493911 -116.559154 86 33191ft 437kts
21-Nov-23 15:19 33.491920 -116.414313 86 34991ft 432kts
21-Nov-23 15:20 33.489817 -116.270824 87 36623ft 427kts
21-Nov-23 15:21 33.487570 -116.129239 87 38080ft 423kts
21-Nov-23 15:22 33.500370 -115.991690 68 39243ft 414kts
21-Nov-23 15:23 33.538776 -115.857267 67 39283ft 436kts
21-Nov-23 15:24 33.578610 -115.718878 67 39297ft 439kts
21-Nov-23 15:25 33.618487 -115.580374 67 39305ft 437kts
21-Nov-23 15:26 33.629695 -115.434668 91 39310ft 448kts
21-Nov-23 15:27 33.619176 -115.285842 89 39306ft 446kts
21-Nov-23 15:28 33.611467 -115.137685 88 39298ft 444kts
21-Nov-23 15:29 33.605255 -114.989431 88 39280ft 442kts
21-Nov-23 15:30 33.599903 -114.843947 87 37689ft 441kts
21-Nov-23 15:31 33.586622 -114.697251 97 35356ft 453kts
21-Nov-23 15:32 33.556617 -114.549455 97 32922ft 461kts
21-Nov-23 15:33 33.526129 -114.398533 97 30445ft 469kts
21-Nov-23 15:34 33.495951 -114.248126 98 27984ft 456kts
21-Nov-23 15:35 33.467054 -114.103257 99 25616ft 441kts
21-Nov-23 15:36 33.438652 -113.961463 99 25274ft 439kts
21-Nov-23 15:37 33.410046 -113.819372 99 25275ft 438kts
21-Nov-23 15:38 33.381348 -113.677583 98 25275ft 438kts
21-Nov-23 15:39 33.352683 -113.536703 99 23209ft 424kts
21-Nov-23 15:40 33.325117 -113.402226 99 21141ft 409kts
21-Nov-23 15:41 33.298441 -113.272725 99 19093ft 398kts
21-Nov-23 15:42 33.272460 -113.146782 97 16946ft 381kts
21-Nov-23 15:43 33.274604 -113.027144 83 15425ft 342kts
21-Nov-23 15:44 33.277972 -112.917900 84 14606ft 312kts
21-Nov-23 15:45 33.280542 -112.817683 84 13738ft 296kts
21-Nov-23 15:46 33.282874 -112.720437 84 12440ft 288kts
21-Nov-23 15:47 33.288080 -112.626393 61 11105ft 277kts
21-Nov-23 15:48 33.334932 -112.553884 50 9841ft 277kts
21-Nov-23 15:49 33.384622 -112.482890 50 8751ft 278kts
21-Nov-23 15:50 33.434535 -112.412176 50 7743ft 273kts
21-Nov-23 15:51 33.479654 -112.347947 51 6801ft 233kts
21-Nov-23 15:52 33.520213 -112.289912 51 5827ft 225kts
21-Nov-23 15:53 33.549392 -112.226293 80 4828ft 215kts
21-Nov-23 15:54 33.555354 -112.160844 84 4308ft 188kts
21-Nov-23 15:55 33.559732 -112.098176 84 3808ft 188kts
21-Nov-23 15:56 33.563834 -112.038065 83 3313ft 164kts
21-Nov-23 15:57 33.567370 -111.986776 85 2887ft 145kts
21-Nov-23 15:58 33.588939 -111.949735 43 2236ft 133kts
21-Nov-23 15:59 33.614995 -111.919708 44 1522ft 127kts
21-Nov-23 16:00 33.626647 -111.907302 229 1489ft 1kts
21-Nov-23 16:01 33.623967 -111.910436 224 1478ft 24kts
21-Nov-23 16:02 33.620260 -111.914726 232 1462ft 11kts
21-Nov-23 16:03 33.620155 -111.915677 300 1461ft 0kts

Navigation Log

Ident Type
Flight plan parsing failed, navigation log unavailable